Time;durP1;ratioP1;P1;durP2;ratioP2;P2;SDS_P1;SDS_P2;PMS_P1;PMS_P2;Temp;Humidity;BMP_temperature;BMP_pressure;BME280_temperature;BME280_humidity;BME280_pressure;Samples;Min_cycle;Max_cycle;Signal;HPM_P1;HPM_P2
2022/03/20 00:02:23;;;;;;;;;;;;;;;;;;;;;
2022/03/20 00:06:30;;;;;;;16.20;4.70;;;;;;;-0.04;35.43;102126.66;6206352;23;20050;-90
2022/03/20 00:09:08;;;;;;;11.75;4.20;;;;;;;0.43;35.17;102181.16;6151412;23;20027;-89
2022/03/20 00:11:37;;;;;;;18.33;4.75;;;;;;;0.73;35.33;102236.22;6173997;23;20017;-89
2022/03/20 00:14:38;;;;;;;8.63;4.43;;;;;;;1.36;35.40;102346.56;6149712;23;20096;-90
2022/03/20 00:17:29;;;;;;;15.30;5.05;;;;;;;0.51;35.48;102221.03;6182867;23;20000;-88
2022/03/20 00:32:01;;;;;;;14.32;4.50;;;;;;;1.00;35.65;102268.81;6184796;23;20024;-89
2022/03/20 00:34:30;;;;;;;16.52;5.20;;;;;;;0.52;35.57;102192.06;6146785;23;20446;-88
2022/03/20 00:37:03;;;;;;;10.07;4.57;;;;;;;0.99;35.71;102292.69;6153439;23;20005;-88
2022/03/20 00:39:36;;;;;;;12.18;4.40;;;;;;;-0.39;35.51;102035.47;6169135;23;20362;-88
2022/03/20 00:42:13;;;;;;;14.35;4.85;;;;;;;0.62;36.15;102231.13;6139757;23;20464;-90
2022/03/20 00:44:54;;;;;;;9.57;4.90;;;;;;;-0.42;36.11;102039.44;6169047;23;20070;-88
2022/03/20 00:47:56;;;;;;;;;;;;;;;;;;;;;
2022/03/20 00:50:43;;;;;;;11.45;4.95;;;;;;;-0.13;36.41;102003.16;6174289;23;20017;-89
2022/03/20 00:53:36;;;;;;;11.30;4.45;;;;;;;-0.13;36.20;102023.63;6151622;23;20046;-90
2022/03/20 01:01:28;;;;;;;15.00;5.90;;;;;;;0.73;36.66;102167.03;6080264;23;20030;-90
2022/03/20 01:14:01;;;;;;;13.57;5.40;;;;;;;0.59;36.48;102160.06;6221372;23;20020;-88
2022/03/20 01:21:56;;;;;;;18.00;5.00;;;;;;;0.92;36.67;102209.31;6129531;23;20017;-88
2022/03/20 01:25:39;;;;;;;14.45;5.20;;;;;;;0.81;37.18;102208.56;6088396;23;20073;-89
2022/03/20 01:29:55;;;;;;;10.57;5.63;;;;;;;-0.27;36.95;102045.69;6129175;23;20049;-89
2022/03/20 01:33:46;;;;;;;14.75;5.68;;;;;;;0.70;37.49;102214.63;6136458;23;20033;-86
2022/03/20 01:36:34;;;;;;;15.85;5.97;;;;;;;0.73;36.85;102250.72;6106123;23;20014;-86
2022/03/20 01:39:43;;;;;;;11.15;5.70;;;;;;;0.67;37.80;102222.09;6138768;22;20048;-86
2022/03/20 01:43:07;;;;;;;13.88;5.57;;;;;;;-0.55;38.24;102017.25;6159699;23;20116;-89
2022/03/20 01:46:53;;;;;;;12.32;5.63;;;;;;;0.83;38.08;102239.44;6153256;23;20027;-89
2022/03/20 01:54:47;;;;;;;11.95;5.80;;;;;;;1.09;37.86;102274.59;6178477;23;20061;-89
2022/03/20 01:57:44;;;;;;;11.07;6.05;;;;;;;0.10;38.24;102119.97;6188804;23;20017;-88
2022/03/20 02:00:18;;;;;;;11.95;5.70;;;;;;;1.09;38.43;102282.28;6186132;23;20036;-87
2022/03/20 02:02:44;;;;;;;12.93;6.05;;;;;;;0.39;38.35;102141.63;6128354;23;20037;-86
2022/03/20 02:05:12;;;;;;;12.18;5.45;;;;;;;0.25;38.73;102099.66;6130871;23;20025;-88
2022/03/20 02:07:40;;;;;;;11.40;5.90;;;;;;;0.34;38.79;102117.34;6180039;23;20009;-86
2022/03/20 02:10:08;;;;;;;13.10;5.95;;;;;;;1.07;39.60;102245.38;6155153;23;20025;-87
2022/03/20 02:12:39;;;;;;;15.95;6.47;;;;;;;0.01;38.80;102050.16;6155151;23;20005;-87
2022/03/20 02:15:17;;;;;;;13.77;6.00;;;;;;;1.13;39.72;102266.31;6155473;23;20052;-86
2022/03/20 02:17:48;;;;;;;12.35;5.63;;;;;;;-0.06;39.11;102046.28;6139730;23;20035;-86
2022/03/20 02:20:17;;;;;;;15.70;6.93;;;;;;;1.23;38.95;102266.94;6166922;23;20028;-88
2022/03/20 02:22:45;;;;;;;14.30;6.28;;;;;;;1.17;39.82;102275.13;6164410;23;20021;-87
2022/03/20 02:25:29;;;;;;;16.63;7.13;;;;;;;-0.69;39.27;101936.97;6114281;23;20006;-87
2022/03/20 02:27:56;;;;;;;12.95;6.28;;;;;;;-0.28;40.19;102023.44;6161320;23;20043;-88
2022/03/20 02:30:38;;;;;;;11.82;6.20;;;;;;;0.47;40.26;102151.50;6170455;23;20070;-87
2022/03/20 02:37:34;;;;;;;13.05;6.28;;;;;;;1.17;40.11;102245.25;6140680;23;20032;-88
2022/03/20 02:40:36;;;;;;;16.77;6.45;;;;;;;0.15;40.52;102102.34;6064449;23;20082;-87
2022/03/20 02:43:07;;;;;;;16.08;6.85;;;;;;;1.07;40.29;102281.28;6078349;23;20033;-88
2022/03/20 02:45:37;;;;;;;19.77;6.45;;;;;;;1.05;40.49;102258.09;6053955;23;20021;-89
2022/03/20 02:48:11;;;;;;;18.08;6.57;;;;;;;1.07;40.42;102259.88;6077904;23;20018;-87
2022/03/20 02:50:40;;;;;;;15.43;6.60;;;;;;;1.05;40.77;102241.81;6052100;23;20018;-88
2022/03/20 02:53:36;;;;;;;16.85;6.80;;;;;;;1.00;40.84;102244.06;6089047;23;20457;-89
2022/03/20 02:56:07;;;;;;;16.42;6.38;;;;;;;0.05;41.54;102067.53;6054779;23;20018;-88
2022/03/20 02:58:45;;;;;;;14.13;6.47;;;;;;;-0.55;40.84;101973.75;6106192;23;20030;-88
2022/03/20 03:01:24;;;;;;;14.45;6.63;;;;;;;0.47;41.27;102139.59;6058865;23;20116;-89
2022/03/20 03:04:00;;;;;;;16.92;6.40;;;;;;;0.70;40.81;102186.44;6091222;23;20052;-89
2022/03/20 03:06:26;;;;;;;13.93;6.63;;;;;;;0.08;41.27;102089.91;6167574;23;20028;-85
2022/03/20 03:11:58;;;;;;;16.52;6.72;;;;;;;0.74;41.54;102214.06;6190746;23;20014;-88
2022/03/20 03:17:27;;;;;;;15.07;7.20;;;;;;;-0.50;41.88;102015.88;6169702;23;20116;-86
2022/03/20 03:19:58;;;;;;;14.82;7.00;;;;;;;-0.21;41.39;102069.13;6154471;23;20086;-88
2022/03/20 03:22:26;;;;;;;17.98;7.45;;;;;;;-0.22;41.34;102053.69;6155374;23;20470;-87
2022/03/20 03:24:56;;;;;;;25.52;8.70;;;;;;;-0.68;41.56;101957.53;6155596;23;20024;-88
2022/03/20 03:27:25;;;;;;;16.35;8.13;;;;;;;0.63;42.25;102195.38;6182414;23;20028;-87
2022/03/20 03:29:51;;;;;;;18.42;9.00;;;;;;;-0.48;41.52;101991.31;6158532;23;20017;-85
2022/03/20 03:32:18;;;;;;;21.98;8.55;;;;;;;-0.48;41.12;102029.69;6136551;23;20020;-87
2022/03/20 03:37:32;;;;;;;22.98;8.38;;;;;;;0.53;42.15;102201.53;6180759;23;20021;-85
2022/03/20 03:40:04;;;;;;;16.35;7.63;;;;;;;-0.19;42.42;102076.94;6157063;23;20036;-85
2022/03/20 03:42:34;;;;;;;23.45;6.90;;;;;;;0.87;42.76;102233.75;6160805;23;20035;-86
2022/03/20 03:45:02;;;;;;;15.55;7.25;;;;;;;0.42;42.38;102125.56;6136730;23;20414;-85
2022/03/20 03:47:29;;;;;;;14.52;7.28;;;;;;;0.59;42.84;102163.50;6159534;23;20021;-87
2022/03/20 03:49:56;;;;;;;25.52;7.43;;;;;;;0.50;42.36;102144.03;6134985;23;20179;-87
2022/03/20 03:52:22;;;;;;;24.23;8.32;;;;;;;0.13;42.38;102093.66;6185599;23;20017;-86
2022/03/20 03:54:48;;;;;;;22.83;8.45;;;;;;;0.00;42.42;102074.03;6142031;23;20116;-86
2022/03/20 03:57:14;;;;;;;17.60;7.78;;;;;;;-0.09;42.77;102076.78;6188340;23;20480;-88
2022/03/20 03:59:41;;;;;;;21.20;8.13;;;;;;;0.22;42.87;102090.91;6164077;23;20032;-85
2022/03/20 04:02:07;;;;;;;18.75;7.60;;;;;;;0.40;43.01;102119.44;6164058;23;20020;-86
2022/03/20 04:04:34;;;;;;;17.10;7.65;;;;;;;0.14;43.09;102049.34;6163691;23;20020;-87
2022/03/20 04:07:00;;;;;;;20.60;7.88;;;;;;;0.62;42.59;102115.81;6161974;23;20021;-85
2022/03/20 04:09:26;;;;;;;18.75;7.43;;;;;;;1.35;43.15;102211.34;6187244;23;20023;-85
2022/03/20 04:11:52;;;;;;;19.77;7.82;;;;;;;0.11;42.99;101983.47;6162093;23;20017;-87
2022/03/20 04:14:20;;;;;;;20.73;7.50;;;;;;;1.35;42.44;102190.81;6160627;23;20485;-87
2022/03/20 04:16:47;;;;;;;22.13;7.88;;;;;;;0.37;42.57;102001.38;6167351;23;20019;-84
2022/03/20 04:19:16;;;;;;;22.05;8.50;;;;;;;1.54;42.73;102163.81;6203496;23;20017;-84
2022/03/20 04:21:42;;;;;;;16.63;7.68;;;;;;;1.55;42.65;102147.63;6179878;23;20013;-84
2022/03/20 04:24:09;;;;;;;21.38;8.70;;;;;;;1.90;42.95;102192.66;6178857;23;20013;-85
2022/03/20 04:26:41;;;;;;;19.05;8.18;;;;;;;1.98;42.34;102178.66;6175402;23;20024;-87
2022/03/20 04:29:09;;;;;;;18.45;8.30;;;;;;;2.38;42.74;102206.00;6142696;23;20450;-87
2022/03/20 04:31:41;;;;;;;29.38;8.88;;;;;;;1.83;42.36;102087.81;6144818;23;20020;-87
2022/03/20 04:34:10;;;;;;;20.00;8.48;;;;;;;1.56;41.87;101974.88;6148151;23;20021;-85
2022/03/20 04:37:18;;;;;;;15.63;6.95;;;;;;;1.90;41.81;101953.84;6173712;23;20031;-85
2022/03/20 04:39:50;;;;;;;15.57;7.65;;;;;;;4.26;40.76;102212.75;6172719;23;20040;-87
2022/03/20 04:42:16;;;;;;;;;;;;;;;4.70;40.46;102197.94;6148048;23;20087;-87
2022/03/20 04:44:43;;;;;;;16.08;7.38;;;;;;;4.42;39.73;102085.56;6155619;23;19917;-83
2022/03/20 04:58:51;;;;;;;19.10;7.53;;;;;;;7.82;37.02;102052.72;6159045;23;20024;-82
2022/03/20 05:01:13;;;;;;;15.10;7.50;;;;;;;10.17;35.63;102116.03;6112183;23;20528;-85
2022/03/20 05:03:45;;;;;;;14.70;7.47;;;;;;;11.60;33.95;102097.25;6136994;23;20320;-82
2022/03/20 05:06:20;;;;;;;17.70;7.63;;;;;;;11.95;32.04;101942.38;6132865;23;20359;-85
2022/03/20 05:13:19;;;;;;;12.63;7.72;;;;;;;14.48;30.56;102159.91;6165038;23;20112;-84
2022/03/20 05:14:31;;;;;;;14.73;8.02;;;;;;;16.65;27.91;102106.50;6137714;23;20327;-84
2022/03/20 05:16:58;;;;;;;14.60;7.45;;;;;;;17.82;26.78;102131.97;6158788;23;20024;-84
2022/03/20 05:19:24;;;;;;;14.55;8.43;;;;;;;18.13;25.54;102041.47;6159691;23;20037;-86
2022/03/20 05:21:50;;;;;;;13.93;8.40;;;;;;;19.15;24.75;102071.59;6144539;23;20017;-85
2022/03/20 05:24:17;;;;;;;15.38;8.48;;;;;;;19.53;23.90;102009.63;6171258;23;20023;-85
2022/03/20 05:26:46;;;;;;;12.50;7.95;;;;;;;20.28;22.91;102021.03;6167687;23;20041;-86
2022/03/20 05:29:17;;;;;;;13.15;8.68;;;;;;;21.67;22.70;102144.97;6160974;23;20027;-85
2022/03/20 05:31:58;;;;;;;13.55;8.35;;;;;;;21.91;21.37;102094.19;6157654;23;20017;-86
2022/03/20 05:34:25;;;;;;;16.00;9.38;;;;;;;22.95;21.07;102126.44;6129283;23;20025;-83
2022/03/20 05:36:51;;;;;;;12.55;8.90;;;;;;;23.67;20.03;102131.72;6128204;23;20036;-84
2022/03/20 05:39:17;;;;;;;15.52;8.75;;;;;;;24.05;19.32;102073.09;6154356;23;20579;-86
2022/03/20 05:41:47;;;;;;;11.68;8.52;;;;;;;24.18;18.87;101991.13;6145390;23;20096;-85
2022/03/20 05:44:18;;;;;;;13.30;8.55;;;;;;;25.26;18.68;102071.91;6177655;23;20022;-83
2022/03/20 05:46:51;;;;;;;11.82;8.90;;;;;;;25.80;17.53;102046.00;6128566;23;20347;-84
2022/03/20 05:49:19;;;;;;;14.45;8.27;;;;;;;26.14;17.10;102043.88;6178476;23;20040;-85
2022/03/20 05:51:48;;;;;;;10.57;8.55;;;;;;;27.15;16.71;102112.75;6154142;23;20064;-85
2022/03/20 05:54:18;;;;;;;12.10;8.65;;;;;;;27.63;16.14;102046.56;6153055;23;20028;-85
2022/03/20 05:59:36;;;;;;;12.85;8.00;;;;;;;27.93;16.01;101943.56;6155602;23;20558;-87
2022/03/20 06:02:16;;;;;;;14.45;8.68;;;;;;;28.66;15.62;102039.94;6153351;23;20013;-87
2022/03/20 06:04:42;;;;;;;11.65;9.18;;;;;;;28.96;15.12;101936.69;6152556;23;20017;-86
2022/03/20 06:07:09;;;;;;;11.15;8.80;;;;;;;29.72;14.61;101946.84;6152365;23;20013;-86
2022/03/20 06:09:38;;;;;;;11.95;8.75;;;;;;;30.49;14.30;102005.16;6152816;23;20100;-87
2022/03/20 06:12:10;;;;;;;12.60;8.60;;;;;;;31.58;13.94;102084.69;6132557;23;20017;-85
2022/03/20 06:14:39;;;;;;;11.40;9.25;;;;;;;32.25;13.17;102065.22;6177912;23;20115;-86
2022/03/20 06:17:06;;;;;;;11.60;8.70;;;;;;;32.54;13.07;102017.50;6176747;23;20014;-86
2022/03/20 06:19:34;;;;;;;11.23;8.68;;;;;;;32.48;12.70;101915.56;6153458;23;20028;-84
2022/03/20 06:22:03;;;;;;;12.05;8.63;;;;;;;33.80;12.32;102057.38;6156551;23;20019;-84
2022/03/20 06:24:38;;;;;;;9.98;8.68;;;;;;;33.96;11.99;102023.88;6154383;23;20017;-88
2022/03/20 06:27:07;;;;;;;11.73;8.70;;;;;;;34.41;11.70;102067.34;6154865;23;20021;-84
2022/03/20 06:29:33;;;;;;;11.18;8.13;;;;;;;34.54;11.78;102060.06;6161592;23;20020;-83
2022/03/20 06:32:00;;;;;;;8.35;6.88;;;;;;;33.98;11.84;101982.31;6153059;23;20025;-84
2022/03/20 06:35:07;;;;;;;7.97;6.60;;;;;;;34.50;11.11;102036.09;6152343;23;20032;-85
2022/03/20 06:37:46;;;;;;;10.02;6.45;;;;;;;34.36;11.83;101966.88;6153416;23;20144;-85
2022/03/20 06:40:18;;;;;;;11.32;6.13;;;;;;;35.19;11.25;101996.59;6133084;23;20032;-86
2022/03/20 06:42:55;;;;;;;9.00;7.20;;;;;;;35.32;10.89;101937.81;6184898;23;20021;-86
2022/03/20 06:45:47;;;;;;;7.10;6.40;;;;;;;36.34;10.42;102028.78;6135966;23;20051;-89
2022/03/20 06:49:08;;;;;;;6.78;5.82;;;;;;;35.65;10.81;101910.84;6124674;23;20033;-84
2022/03/20 06:52:01;;;;;;;7.28;5.70;;;;;;;35.25;10.46;101914.94;6107661;23;20017;-87
2022/03/20 06:54:30;;;;;;;7.07;6.30;;;;;;;35.22;11.19;101888.13;6158324;23;20423;-87
2022/03/20 06:56:56;;;;;;;9.40;5.47;;;;;;;35.25;10.48;101917.63;6161349;23;20017;-90
2022/03/20 06:59:22;;;;;;;8.90;5.70;;;;;;;34.51;10.17;101917.13;6159209;23;20045;-86
2022/03/20 07:01:49;;;;;;;8.00;5.70;;;;;;;34.61;10.75;101943.41;6186847;23;20113;-84
2022/03/20 07:04:25;;;;;;;7.15;5.53;;;;;;;35.23;10.31;101892.56;6187650;23;20103;-84
2022/03/20 07:06:54;;;;;;;6.00;5.40;;;;;;;36.00;10.22;101926.84;6164219;23;20017;-84
2022/03/20 07:09:27;;;;;;;7.20;6.03;;;;;;;36.01;9.68;101925.88;6165554;23;20021;-86
2022/03/20 07:11:57;;;;;;;15.13;6.63;;;;;;;36.04;10.02;101970.78;6183777;23;20023;-85
2022/03/20 07:14:26;;;;;;;8.55;5.72;;;;;;;36.52;9.73;102002.00;6185724;23;20016;-84
2022/03/20 07:16:55;;;;;;;10.02;5.75;;;;;;;36.95;10.05;101993.88;6157355;23;20075;-83
2022/03/20 07:19:26;;;;;;;6.70;5.90;;;;;;;37.56;9.39;101998.41;6157809;23;20017;-82
2022/03/20 07:21:53;;;;;;;7.95;6.05;;;;;;;37.46;9.81;101954.13;6180566;23;20017;-84
2022/03/20 07:24:22;;;;;;;11.37;6.17;;;;;;;37.77;9.39;101908.72;6180475;23;20021;-81
2022/03/20 07:29:50;;;;;;;9.00;6.45;;;;;;;38.50;9.21;101860.34;6156557;23;20017;-84
2022/03/20 07:32:30;;;;;;;9.88;6.05;;;;;;;39.53;9.11;102003.66;6182086;23;20072;-82
2022/03/20 07:35:30;;;;;;;10.02;6.80;;;;;;;38.98;8.76;101919.13;6183107;23;20017;-82
2022/03/20 07:38:01;;;;;;;7.93;6.18;;;;;;;39.76;8.94;101895.19;6187578;23;20017;-84
2022/03/20 07:40:29;;;;;;;8.68;6.32;;;;;;;40.80;8.63;101966.38;6170363;23;20036;-82
2022/03/20 07:43:13;;;;;;;8.68;6.65;;;;;;;41.21;8.47;101987.53;6164374;23;20361;-85
2022/03/20 07:45:42;;;;;;;7.45;6.63;;;;;;;41.03;8.68;101895.69;6127024;23;20024;-84
2022/03/20 07:48:55;;;;;;;7.38;5.88;;;;;;;41.20;8.41;101980.38;6175993;23;20439;-83
2022/03/20 07:52:11;;;;;;;7.40;6.57;;;;;;;40.57;8.54;101855.06;6150698;23;20017;-85
2022/03/20 07:55:15;;;;;;;8.25;6.40;;;;;;;41.55;8.39;101970.28;6150702;23;20088;-83
2022/03/20 07:57:45;;;;;;;6.95;6.25;;;;;;;41.16;8.03;101897.13;6096717;23;20021;-85
2022/03/20 08:00:12;;;;;;;7.77;6.20;;;;;;;41.46;8.13;101944.81;6150115;23;20157;-82
2022/03/20 08:02:39;;;;;;;7.97;5.97;;;;;;;41.09;7.79;101974.22;6152367;23;20017;-83
2022/03/20 08:05:09;;;;;;;6.53;5.93;;;;;;;40.97;8.13;101920.91;6151845;23;20101;-85
2022/03/20 08:07:39;;;;;;;7.25;5.82;;;;;;;40.80;8.21;101931.75;6151752;23;20013;-80
2022/03/20 08:10:06;;;;;;;;;;;;;;;40.92;7.93;101956.03;6177309;23;20017;-84
2022/03/20 08:12:34;;;;;;;9.13;5.93;;;;;;;40.91;8.19;101936.06;6155660;23;19912;-85
2022/03/20 08:15:02;;;;;;;7.07;6.38;;;;;;;41.32;8.19;101885.38;6156502;23;20024;-84
2022/03/20 08:17:45;;;;;;;9.05;6.57;;;;;;;41.59;8.18;101826.94;6180325;23;20096;-83
2022/03/20 08:20:12;;;;;;;9.88;6.80;;;;;;;42.80;8.06;101909.09;6155450;23;20073;-82
2022/03/20 08:22:45;;;;;;;9.25;6.80;;;;;;;42.95;7.66;101883.72;6157837;23;20017;-82
2022/03/20 08:25:15;;;;;;;8.82;6.65;;;;;;;43.20;7.16;101868.84;6130525;23;20099;-84
2022/03/20 08:27:43;;;;;;;9.32;6.15;;;;;;;42.92;7.34;101863.03;6161174;23;20017;-81
2022/03/20 08:30:17;;;;;;;9.63;8.15;;;;;;;42.86;7.57;101859.16;6158204;23;20024;-80
2022/03/20 08:32:55;;;;;;;7.30;6.60;;;;;;;42.52;7.77;101914.13;6108132;23;20017;-83
2022/03/20 08:35:31;;;;;;;6.60;5.70;;;;;;;42.52;7.70;101906.75;6154812;23;20024;-82
2022/03/20 08:38:08;;;;;;;6.22;5.40;;;;;;;42.21;7.43;101781.75;6158715;23;20017;-82
2022/03/20 08:40:40;;;;;;;7.82;6.25;;;;;;;42.84;7.28;101811.94;6180438;23;20018;-80
2022/03/20 08:43:15;;;;;;;9.30;5.75;;;;;;;43.06;7.42;101834.06;6131344;23;20017;-81
2022/03/20 08:45:44;;;;;;;6.38;5.22;;;;;;;41.73;7.55;101832.72;6179228;23;20470;-81
2022/03/20 08:48:21;;;;;;;7.43;6.72;;;;;;;41.61;7.55;101849.44;6130004;23;20021;-81
2022/03/20 08:50:48;;;;;;;6.10;5.30;;;;;;;41.54;7.50;101791.06;6154091;23;20013;-80
2022/03/20 08:53:25;;;;;;;7.47;5.60;;;;;;;42.17;7.37;101853.34;6130340;23;20021;-81
2022/03/20 08:56:17;;;;;;;10.65;5.82;;;;;;;42.54;7.46;101874.63;6154412;23;20021;-89
2022/03/20 08:58:48;;;;;;;6.97;5.15;;;;;;;42.70;7.33;101872.88;6128370;23;20403;-81
2022/03/20 09:01:14;;;;;;;6.32;5.32;;;;;;;42.37;7.43;101859.28;6103063;23;20014;-81
2022/03/20 09:03:40;;;;;;;6.60;5.60;;;;;;;42.19;7.27;101846.69;6152735;23;20088;-81
2022/03/20 09:06:06;;;;;;;5.80;5.25;;;;;;;41.17;7.01;101871.53;6152838;23;20080;-81
2022/03/20 09:08:32;;;;;;;6.70;5.85;;;;;;;40.93;7.42;101849.44;6128781;23;20079;-81
2022/03/20 09:10:58;;;;;;;5.32;4.72;;;;;;;41.64;7.69;101845.53;6153550;23;20021;-81
2022/03/20 09:13:24;;;;;;;6.20;5.40;;;;;;;41.87;7.35;101848.41;6152488;23;20024;-85
2022/03/20 09:18:59;;;;;;;8.05;5.55;;;;;;;41.89;7.25;101829.97;6177242;23;20024;-82
2022/03/20 09:21:33;;;;;;;5.60;4.97;;;;;;;40.51;7.65;101768.47;6154930;23;20021;-83
2022/03/20 09:24:13;;;;;;;9.10;7.18;;;;;;;40.93;7.67;101794.03;6154716;23;20037;-83
2022/03/20 09:26:39;;;;;;;7.20;5.00;;;;;;;40.98;7.57;101821.66;6151715;23;20399;-81
2022/03/20 09:29:17;;;;;;;5.55;4.75;;;;;;;41.37;7.38;101820.22;6175890;23;20024;-81
2022/03/20 09:31:50;;;;;;;14.40;12.85;;;;;;;41.19;7.69;101834.88;6151493;23;20109;-83
2022/03/20 09:34:17;;;;;;;10.80;7.95;;;;;;;40.89;7.24;101825.41;6152243;23;20021;-82
2022/03/20 09:36:43;;;;;;;10.13;6.18;;;;;;;40.83;7.24;101831.50;6152608;23;20021;-86
2022/03/20 09:39:13;;;;;;;12.23;6.10;;;;;;;40.35;7.40;101821.91;6154265;23;20017;-84
2022/03/20 09:41:47;;;;;;;11.77;8.75;;;;;;;39.56;7.72;101827.25;6175193;23;20390;-79
2022/03/20 09:44:17;;;;;;;20.30;16.05;;;;;;;39.74;7.46;101764.56;6152840;23;20018;-80
2022/03/20 09:46:44;;;;;;;5.47;3.88;;;;;;;40.12;7.55;101763.50;6152185;23;20021;-82
2022/03/20 09:49:47;;;;;;;4.53;3.50;;;;;;;40.28;7.34;101806.34;6150192;23;20048;-84
2022/03/20 09:52:23;;;;;;;6.07;3.45;;;;;;;40.26;7.18;101819.31;6151421;23;20049;-84
2022/03/20 09:55:10;;;;;;;4.22;3.83;;;;;;;39.86;7.56;101650.78;6151359;23;20017;-84
2022/03/20 09:58:11;;;;;;;5.13;3.40;;;;;;;40.74;6.89;101797.91;6151427;23;20025;-82
2022/03/20 10:00:43;;;;;;;6.15;3.10;;;;;;;40.02;7.09;101755.44;6080308;23;20502;-83
2022/03/20 10:03:42;;;;;;;6.53;3.40;;;;;;;39.96;7.14;101699.72;6152955;23;20084;-85
2022/03/20 10:06:26;;;;;;;4.73;2.97;;;;;;;40.54;6.72;101740.88;6114888;23;20018;-82
2022/03/20 10:09:29;;;;;;;;;;;;;;;;;;;;;
2022/03/20 10:12:06;;;;;;;3.75;3.20;;;;;;;40.18;6.49;101763.69;6156326;23;20017;-82
2022/03/20 10:14:56;;;;;;;;;;;;;;;;;;;;;
2022/03/20 10:18:04;;;;;;;11.30;3.40;;;;;;;38.01;7.13;101594.22;6155737;23;20021;-85
2022/03/20 10:21:21;;;;;;;;;;;;;;;;;;;;;
2022/03/20 10:24:29;;;;;;;7.05;3.00;;;;;;;34.18;7.61;101748.56;6125007;23;20025;-83
2022/03/20 10:27:05;;;;;;;4.68;3.30;;;;;;;30.79;8.80;101749.06;6177616;23;20100;-81
2022/03/20 10:29:33;;;;;;;6.60;3.00;;;;;;;28.35;9.49;101740.84;6153641;23;20017;-82
2022/03/20 10:32:23;;;;;;;5.03;3.00;;;;;;;25.19;10.73;101549.25;6155304;23;20021;-82
2022/03/20 10:34:52;;;;;;;5.93;2.60;;;;;;;25.01;11.04;101739.91;6115509;23;20044;-82
2022/03/20 10:37:41;;;;;;;5.45;2.50;;;;;;;23.12;11.50;101614.50;6155926;23;20013;-80
2022/03/20 10:40:09;;;;;;;4.55;2.40;;;;;;;22.80;12.18;101737.59;6167219;23;20037;-80
2022/03/20 10:43:11;;;;;;;4.32;2.60;;;;;;;21.42;12.95;101674.97;6192898;23;20021;-79
2022/03/20 10:46:00;;;;;;;3.42;2.30;;;;;;;20.92;13.34;101731.66;6160444;23;20344;-80
2022/03/20 10:48:50;;;;;;;6.80;2.78;;;;;;;20.08;13.97;101706.00;6161704;23;20012;-80
2022/03/20 10:51:41;;;;;;;5.75;2.63;;;;;;;19.76;14.15;101725.88;6167629;23;20017;-81
2022/03/20 10:54:22;;;;;;;4.70;2.53;;;;;;;18.98;14.57;101668.13;6192934;23;20031;-79
2022/03/20 10:57:42;;;;;;;8.00;2.63;;;;;;;18.41;15.08;101685.56;6170187;23;20139;-83
2022/03/20 11:00:07;;;;;;;9.45;3.13;;;;;;;16.78;15.64;101550.09;6178991;23;20013;-80
2022/03/20 11:02:54;;;;;;;4.50;2.58;;;;;;;17.47;16.14;101711.81;6137765;23;20020;-81
2022/03/20 11:05:26;;;;;;;14.95;2.60;;;;;;;15.89;16.08;101492.78;6186201;23;20072;-83
2022/03/20 11:07:52;;;;;;;4.90;2.58;;;;;;;16.88;16.83;101721.81;6182909;23;20163;-81
2022/03/20 11:10:19;;;;;;;4.82;2.33;;;;;;;16.65;16.65;101705.25;6182654;23;20068;-81
2022/03/20 11:12:47;;;;;;;5.18;2.30;;;;;;;15.95;16.76;101639.78;6156388;23;20020;-83
2022/03/20 11:15:13;;;;;;;9.98;1.80;;;;;;;16.04;17.20;101701.00;6180386;23;20085;-81
2022/03/20 11:17:45;;;;;;;2.75;1.60;;;;;;;15.75;17.12;101689.63;6155583;23;20096;-82
2022/03/20 11:20:14;;;;;;;5.97;1.85;;;;;;;15.14;17.36;101652.00;6180502;23;20028;-81
2022/03/20 11:22:59;;;;;;;4.43;1.80;;;;;;;14.87;17.58;101651.06;6156237;23;20017;-81
2022/03/20 11:25:30;;;;;;;3.83;1.50;;;;;;;14.89;17.55;101690.41;6154169;23;20020;-82
2022/03/20 11:28:03;;;;;;;3.58;1.83;;;;;;;13.76;17.85;101501.34;6131873;23;20029;-81
2022/03/20 11:30:32;;;;;;;4.95;1.83;;;;;;;14.28;17.96;101587.09;6180199;23;20485;-83
2022/03/20 11:33:01;;;;;;;4.38;1.73;;;;;;;14.75;18.13;101680.72;6182616;23;20017;-82
2022/03/20 11:35:32;;;;;;;3.25;1.52;;;;;;;14.47;18.44;101640.41;6193919;23;20017;-82
2022/03/20 11:38:26;;;;;;;7.00;1.98;;;;;;;14.28;18.47;101679.63;6199100;23;20017;-83
2022/03/20 11:41:11;;;;;;;10.30;2.00;;;;;;;14.01;18.62;101670.72;6171770;23;20077;-80
2022/03/20 11:44:20;;;;;;;3.45;2.15;;;;;;;13.94;18.86;101668.06;6135316;23;20017;-80
2022/03/20 11:47:06;;;;;;;;;;;;;;;13.88;19.04;101670.63;6156374;23;20017;-80
2022/03/20 11:50:09;;;;;;;;;;;;;;;;;;;;;
2022/03/20 11:53:40;;;;;;;6.85;2.35;;;;;;;13.42;19.18;101658.06;6152945;23;20023;-80
2022/03/20 11:56:07;;;;;;;6.28;3.40;;;;;;;12.80;19.92;101587.75;6126564;23;20447;-83
2022/03/20 11:58:38;;;;;;;4.35;1.88;;;;;;;13.19;19.78;101664.78;6157701;23;20021;-81
2022/03/20 12:01:09;;;;;;;7.03;1.90;;;;;;;13.09;20.16;101670.78;6152589;23;20530;-86
2022/03/20 12:04:03;;;;;;;3.42;1.75;;;;;;;12.61;20.24;101603.22;6178605;23;20048;-83
2022/03/20 12:06:55;;;;;;;5.00;1.60;;;;;;;12.96;20.43;101652.34;6155140;23;20017;-84
2022/03/20 12:09:52;;;;;;;3.15;1.90;;;;;;;12.83;20.52;101658.31;6138839;23;20030;-84
2022/03/20 12:13:00;;;;;;;9.95;1.65;;;;;;;12.68;20.85;101653.78;6148119;23;20013;-82
2022/03/20 12:15:30;;;;;;;4.65;1.67;;;;;;;12.52;21.15;101639.66;6154916;23;20021;-82
2022/03/20 12:18:03;;;;;;;8.00;3.17;;;;;;;12.20;21.21;101612.28;6132185;23;20041;-84
2022/03/20 12:20:48;;;;;;;3.63;2.42;;;;;;;12.31;21.66;101651.56;6152749;23;20017;-82
2022/03/20 12:23:38;;;;;;;3.45;1.48;;;;;;;12.22;21.52;101643.63;6152231;23;20075;-81
2022/03/20 12:26:31;;;;;;;10.25;1.60;;;;;;;12.18;21.65;101636.63;6152015;23;20021;-84
2022/03/20 12:29:39;;;;;;;3.42;1.67;;;;;;;11.78;21.97;101579.50;6177675;23;20021;-84
2022/03/20 12:32:12;;;;;;;5.53;1.60;;;;;;;12.01;22.02;101632.03;6063110;23;20026;-83
2022/03/20 12:34:40;;;;;;;7.85;1.85;;;;;;;12.00;22.58;101634.59;5996967;23;20026;-82
2022/03/20 12:37:27;;;;;;;4.38;1.67;;;;;;;11.90;22.67;101636.19;6043204;23;20101;-83
2022/03/20 12:39:55;;;;;;;5.60;1.60;;;;;;;10.94;22.76;101513.03;6042288;23;20019;-83
2022/03/20 12:42:22;;;;;;;10.98;2.40;;;;;;;11.38;23.39;101592.78;6043791;23;20023;-82
2022/03/20 12:44:52;;;;;;;3.70;1.60;;;;;;;11.54;23.63;101625.19;6158667;23;20037;-82
2022/03/20 12:47:19;;;;;;;4.97;1.73;;;;;;;11.53;23.64;101619.97;6157137;23;20021;-81
2022/03/20 12:49:55;;;;;;;7.85;1.92;;;;;;;11.29;24.14;101582.22;6188059;23;20013;-81
2022/03/20 12:52:24;;;;;;;7.07;2.00;;;;;;;11.20;23.96;101588.16;6175695;23;20025;-82
2022/03/20 12:55:02;;;;;;;6.53;3.50;;;;;;;11.37;24.30;101630.13;6193671;23;20036;-82
2022/03/20 12:57:54;;;;;;;6.43;1.63;;;;;;;11.41;24.67;101631.06;6162946;23;20024;-82
2022/03/20 13:00:32;;;;;;;3.63;2.03;;;;;;;11.35;24.65;101628.34;6162335;23;20421;-82
2022/03/20 13:03:12;;;;;;;4.57;2.03;;;;;;;11.07;24.98;101587.06;6169421;23;20017;-82
2022/03/20 13:05:55;;;;;;;3.80;1.95;;;;;;;10.62;25.48;101530.69;6191705;23;20017;-83
2022/03/20 13:08:49;;;;;;;3.17;1.70;;;;;;;9.87;25.48;101414.75;6164945;23;20017;-83
2022/03/20 13:11:51;;;;;;;3.83;2.17;;;;;;;10.67;25.84;101558.56;6166086;23;20100;-81
2022/03/20 13:14:17;;;;;;;6.07;2.08;;;;;;;10.64;26.05;101534.22;6145454;23;20342;-82
2022/03/20 13:20:53;;;;;;;4.88;2.10;;;;;;;10.13;26.33;101479.44;6137709;23;20024;-81
2022/03/20 13:24:04;;;;;;;6.10;1.92;;;;;;;9.73;26.44;101422.28;6148398;23;20017;-84
2022/03/20 13:27:47;;;;;;;4.53;2.13;;;;;;;9.36;26.67;101358.31;6114446;23;20041;-82
2022/03/20 13:30:27;;;;;;;;;;;;;;;;;;;;;
2022/03/20 13:33:52;;;;;;;5.40;2.10;;;;;;;10.77;26.95;101610.81;6163054;23;20021;-82
2022/03/20 13:36:20;;;;;;;4.63;2.22;;;;;;;10.73;26.64;101607.25;6164160;23;20024;-80
2022/03/20 13:38:49;;;;;;;7.50;2.65;;;;;;;10.12;26.92;101519.28;6187964;23;20372;-82
2022/03/20 13:41:17;;;;;;;4.60;1.85;;;;;;;10.67;26.96;101604.56;6171741;23;20027;-81
2022/03/20 13:43:51;;;;;;;2.70;1.98;;;;;;;10.29;27.53;101549.97;6160502;23;20044;-80
2022/03/20 13:46:29;;;;;;;6.15;2.10;;;;;;;10.28;27.21;101551.69;6158820;23;20347;-83